Time;durP1;ratioP1;P1;durP2;ratioP2;P2;SDS_P1;SDS_P2;PMS_P1;PMS_P2;Temp;Humidity;BMP_temperature;BMP_pressure;BME280_temperature;BME280_humidity;BME280_pressure;Samples;Min_cycle;Max_cycle;Signal;HPM_P1;HPM_P2
2022/02/10 00:18:37;;;;;;;;;;;2.60;99.90;;;1.33;90.10;96354.31;10389787;28;1985;-69
2022/02/10 00:23:53;;;;;;;;;;;2.60;99.90;;;1.27;89.93;96361.28;10443702;28;1813;-68
2022/02/10 00:34:24;;;;;;;;;;;2.60;99.90;;;1.34;89.23;96356.78;10441204;28;1886;-68
2022/02/10 00:39:59;;;;;;;;;;;2.60;99.90;;;1.44;88.58;96352.91;10429775;28;2649;-70
2022/02/10 00:45:03;;;;;;;;;;;2.60;99.90;;;1.28;89.46;96354.94;10442115;28;1831;-69
2022/02/10 00:50:07;;;;;;;;;;;2.50;99.90;;;1.16;89.72;96359.19;10444120;28;1946;-69
2022/02/10 00:55:16;;;;;;;;;;;2.50;99.90;;;1.19;89.55;96355.31;10441019;28;1918;-69
2022/02/10 01:11:16;;;;;;;;;;;2.20;99.90;;;0.91;92.04;96350.97;10442317;28;1916;-68
2022/02/10 01:32:21;;;;;;;;;;;2.00;99.90;;;0.79;92.91;96357.84;10439098;28;1927;-68
2022/02/10 01:37:25;;;;;;;;;;;2.00;99.90;;;0.74;92.80;96355.78;10440784;28;1989;-69
2022/02/10 02:03:18;;;;;;;;;;;1.80;99.90;;;0.52;93.77;96333.94;10437285;28;1911;-67
2022/02/10 02:04:10;;;;;;;;;;;1.60;99.90;;;0.51;93.67;96332.31;10435602;28;1949;-69
2022/02/10 02:09:15;;;;;;;;;;;2.40;99.90;;;0.49;94.02;96321.09;10429591;28;1843;-67
2022/02/10 02:14:19;;;;;;;;;;;1.60;99.90;;;0.59;93.85;96319.94;10437470;28;1934;-67
2022/02/10 02:19:32;;;;;;;;;;;1.70;99.90;;;0.57;92.91;96306.88;10437869;28;1973;-67
2022/02/10 02:24:42;;;;;;;;;;;1.40;99.90;;;0.58;92.88;96291.84;10457752;28;1871;-69
2022/02/10 02:29:54;;;;;;;;;;;1.60;99.90;;;0.51;92.66;96294.47;10441412;28;1983;-68
2022/02/10 02:35:28;;;;;;;;;;;1.80;99.90;;;0.44;92.72;96280.38;10439631;28;1983;-67
2022/02/10 03:07:36;;;;;;;;;;;1.90;99.90;;;0.56;90.19;96262.09;10452305;28;2004;-68
2022/02/10 03:12:40;;;;;;;;;;;1.80;99.90;;;0.59;89.80;96253.78;10450964;28;2002;-67
2022/02/10 03:17:54;;;;;;;;;;;1.80;99.90;;;0.66;89.50;96259.91;10452032;28;1996;-69
2022/02/10 04:11:42;;;;;;;;;;;1.70;99.90;;;0.36;89.32;96241.69;10374828;28;2013;-72
2022/02/10 04:16:53;;;;;;;;;;;1.70;99.90;;;0.43;88.66;96245.16;10397457;28;1985;-72
2022/02/10 04:22:02;;;;;;;;;;;1.60;99.90;;;0.43;88.41;96239.88;10404363;28;1849;-73
2022/02/10 04:27:11;;;;;;;;;;;1.60;99.90;;;0.42;88.80;96235.59;10406236;28;1843;-72
2022/02/10 04:32:35;;;;;;;;;;;1.70;99.90;;;0.48;88.02;96232.19;10401937;28;1965;-72
2022/02/10 04:38:23;;;;;;;;;;;1.60;99.90;;;0.37;88.64;96231.94;10398374;28;1917;-72
2022/02/10 04:59:45;;;;;;;;;;;1.70;99.90;;;0.54;86.48;96219.97;10411329;28;1975;-73
2022/02/10 05:05:20;;;;;;;;;;;1.70;99.90;;;0.53;86.73;96216.53;10395145;28;1978;-73
2022/02/10 05:16:22;;;;;;;;;;;1.70;99.90;;;0.41;87.32;96227.88;10392658;28;1967;-73
2022/02/10 05:21:58;;;;;;;;;;;1.60;99.90;;;0.32;87.81;96223.75;10391478;28;2008;-73
2022/02/10 05:37:51;;;;;;;;;;;1.50;99.90;;;0.19;88.33;96217.44;10605349;27;1338609;-72
2022/02/10 05:48:40;;;;;;;;;;;1.40;99.90;;;0.14;88.23;96219.03;10593130;27;1928;-72
2022/02/10 05:53:58;;;;;;;;;;;1.40;99.90;;;0.08;90.11;96233.06;10605513;27;1976;-73
2022/02/10 05:59:29;;;;;;;;;;;1.20;99.90;;;0.03;88.82;96227.53;10579672;27;2020;-72
2022/02/10 06:53:04;;;;;;;;;;;1.40;99.90;;;0.44;87.29;96246.78;10537523;27;1943;-73
2022/02/10 07:02:30;;;;;;;;;;;1.60;99.90;;;0.59;86.08;96251.13;10561497;27;1959;-73
2022/02/10 07:04:18;;;;;;;;;;;1.60;99.90;;;0.70;85.43;96240.78;10556921;27;1970;-73
2022/02/10 07:57:38;;;;;;;;;;;2.80;99.90;;;2.13;74.84;96233.97;10557388;27;1894;-72
2022/02/10 08:56:30;;;;;;;;;;;4.90;99.90;;;4.60;66.36;96207.84;10601406;27;1962;-71
2022/02/10 09:01:47;;;;;;;;;;;5.20;99.90;;;4.91;67.70;96203.31;10587911;27;1786;-72
2022/02/10 09:07:19;;;;;;;;;;;5.60;99.90;;;5.28;63.90;96198.63;10573489;27;1814;-72
2022/02/10 10:00:49;;;;;;;;;;;9.50;99.90;;;8.88;52.42;96181.94;10452379;28;1865;-67
2022/02/10 10:05:52;;;;;;;;;;;9.60;99.90;;;9.11;52.18;96188.09;10472910;28;1899;-67
2022/02/10 10:11:25;;;;;;;;;;;9.20;99.90;;;9.22;51.71;96179.06;10464227;28;2024;-69
2022/02/10 10:16:52;;;;;;;;;;;10.00;99.90;;;9.31;51.40;96168.69;10475550;28;1945;-67
2022/02/10 10:22:19;;;;;;;;;;;10.20;99.90;;;9.44;51.02;96162.88;10475894;28;2071;-68
2022/02/10 10:54:31;;;;;;;;;;;11.10;99.90;;;10.40;50.64;96129.63;10441558;28;2193;-68
2022/02/10 10:59:43;;;;;;;;;;;11.50;99.90;;;10.62;49.74;96122.16;10445380;28;1808;-69
2022/02/10 11:37:35;;;;;;;;;;;;;;;11.19;47.92;96083.50;10469291;28;1914;-68
2022/02/10 11:42:53;;;;;;;;;;;;;;;11.22;45.84;96082.16;10472531;28;1848;-68
2022/02/10 12:42:41;;;;;;;;;;;12.50;99.90;;;11.60;42.94;96029.63;10388065;28;1879;-69
2022/02/10 13:48:02;;;;;;;;;;;13.30;99.90;;;12.39;44.78;95992.91;10476323;28;1910;-67
2022/02/10 14:13:40;;;;;;;;;;;12.80;99.90;;;11.87;47.57;95988.88;10490138;28;1992;-68
2022/02/10 14:18:50;;;;;;;;;;;12.70;99.90;;;11.80;47.93;95999.13;10482706;28;1970;-68
2022/02/10 14:29:14;;;;;;;;;;;12.60;99.90;;;11.83;48.90;95996.72;10481081;28;1896;-68
2022/02/10 14:34:23;;;;;;;;;;;12.60;99.90;;;11.77;49.47;95996.94;10464523;28;1981;-68
2022/02/10 14:39:48;;;;;;;;;;;12.60;99.90;;;11.72;49.75;96003.19;10459261;28;1828;-69
2022/02/10 15:17:28;;;;;;;;;;;11.70;99.90;;;10.57;51.51;95995.81;10458152;28;1993;-69
2022/02/10 15:54:56;;;;;;;;;;;10.80;99.90;;;9.72;53.97;95988.03;10562460;27;1899;-67
2022/02/10 16:10:56;;;;;;;;;;;10.60;99.90;;;9.37;55.45;95987.91;10560159;28;1994;-69
2022/02/10 16:21:29;;;;;;;;;;;10.40;99.90;;;9.11;57.00;95978.91;10558157;28;2012;-68
2022/02/10 16:26:42;;;;;;;;;;;10.20;99.90;;;9.02;57.51;95977.75;10561808;28;1787;-69
2022/02/10 16:31:51;;;;;;;;;;;10.10;99.90;;;8.84;58.26;95974.44;10560516;28;1906;-69
2022/02/10 16:37:00;;;;;;;;;;;9.90;99.90;;;8.74;58.89;95977.03;10557316;28;1805;-68
2022/02/10 16:42:07;;;;;;;;;;;9.80;99.90;;;8.67;59.27;95979.13;10559206;28;1843;-69
2022/02/10 16:47:11;;;;;;;;;;;9.80;99.90;;;8.35;60.60;95973.75;10559349;28;1786;-69
2022/02/10 16:52:22;;;;;;;;;;;9.60;99.90;;;8.37;60.41;95979.69;10592323;27;1993;-69
2022/02/10 16:57:38;;;;;;;;;;;9.50;99.90;;;8.30;61.03;95979.84;10580501;27;1850;-70
2022/02/10 17:03:08;;;;;;;;;;;9.60;99.90;;;8.30;61.20;95987.09;10539651;28;1849;-70
2022/02/10 17:19:10;;;;;;;;;;;9.30;99.90;;;7.89;62.82;95984.00;10530759;28;1811;-70
2022/02/10 17:35:19;;;;;;;;;;;9.10;99.90;;;7.75;63.98;95993.47;10512172;28;1883;-70
2022/02/10 17:45:54;;;;;;;;;;;8.90;99.90;;;7.69;64.93;96002.47;10530509;28;1877;-71
2022/02/10 17:56:19;;;;;;;;;;;8.90;99.90;;;7.57;69.58;96045.41;10522263;28;1816;-72
2022/02/10 18:01:24;;;;;;;;;;;8.80;99.90;;;7.23;74.51;96050.03;10531863;28;1878;-70
2022/02/10 18:06:28;;;;;;;;;;;8.50;99.90;;;7.01;78.08;96048.13;10560496;27;1846;-70
2022/02/10 18:16:54;;;;;;;;;;;8.00;99.90;;;6.59;83.22;96049.56;10497224;28;1898;-70
2022/02/10 18:22:31;;;;;;;;;;;7.80;99.90;;;6.41;84.98;96064.72;10530887;28;1877;-71
2022/02/10 18:27:40;;;;;;;;;;;7.70;99.90;;;6.34;86.25;96064.06;10556503;27;2021;-71
2022/02/10 19:01:35;;;;;;;;;;;7.40;99.90;;;6.35;86.95;96089.72;10558622;27;1917;-71
2022/02/10 19:10:45;;;;;;;;;;;7.50;99.90;;;6.48;87.32;96110.78;10523145;28;1974;-71
2022/02/10 19:15:49;;;;;;;;;;;7.50;99.90;;;6.49;87.20;96101.75;10524790;28;2033;-71
2022/02/10 19:21:11;;;;;;;;;;;7.60;99.90;;;6.57;86.57;96105.09;10521761;28;1915;-71
2022/02/10 19:26:14;;;;;;;;;;;7.50;99.90;;;6.61;86.31;96106.22;10525327;28;1905;-71
2022/02/10 19:31:20;;;;;;;;;;;7.60;99.90;;;6.55;85.79;96107.16;10527090;28;2017;-71
2022/02/10 19:36:24;;;;;;;;;;;7.60;99.90;;;6.59;86.28;96116.31;10526117;28;2097;-71
2022/02/10 19:41:32;;;;;;;;;;;7.50;99.90;;;6.54;86.20;96121.56;10524323;28;2117;-71
2022/02/10 19:46:36;;;;;;;;;;;7.50;99.90;;;6.57;85.45;96131.78;10550105;27;1842;-71
2022/02/10 19:51:39;;;;;;;;;;;7.60;99.90;;;6.55;85.84;96131.19;10554730;28;2021;-72
2022/02/10 19:56:42;;;;;;;;;;;7.60;99.90;;;6.57;86.70;96131.78;10524638;28;1791;-71
2022/02/10 20:01:51;;;;;;;;;;;7.50;99.90;;;6.55;86.34;96140.03;10519974;28;1883;-71
2022/02/10 20:06:54;;;;;;;;;;;7.60;99.90;;;6.62;86.17;96142.56;10556577;28;1808;-73
2022/02/10 20:11:58;;;;;;;;;;;7.60;99.90;;;6.64;86.54;96148.47;10523548;28;1915;-72
2022/02/10 20:17:01;;;;;;;;;;;7.60;99.90;;;6.53;86.34;96152.00;10524112;28;1948;-72
2022/02/10 20:22:05;;;;;;;;;;;7.50;99.90;;;6.50;87.13;96147.97;10523805;28;1969;-71
2022/02/10 20:27:08;;;;;;;;;;;7.50;99.90;;;6.36;87.69;96144.78;10522255;28;1910;-72
2022/02/10 20:32:11;;;;;;;;;;;7.50;99.90;;;6.29;88.27;96141.41;10516794;28;1917;-70
2022/02/10 20:37:14;;;;;;;;;;;7.40;99.90;;;6.12;89.00;96140.53;10538405;28;1815;-72
2022/02/10 20:42:19;;;;;;;;;;;7.30;99.90;;;6.10;89.40;96153.28;10575558;28;1835;-71
2022/02/10 20:47:25;;;;;;;;;;;7.20;99.90;;;5.92;90.81;96147.09;10574592;28;1991;-71
2022/02/10 20:52:28;;;;;;;;;;;7.00;99.90;;;5.91;90.83;96149.97;10566845;28;1914;-70
2022/02/10 20:57:31;;;;;;;;;;;7.00;99.90;;;5.88;91.02;96145.91;10557015;28;1907;-71
2022/02/10 21:02:39;;;;;;;;;;;7.00;99.90;;;5.87;91.39;96149.59;10560127;28;1803;-70
2022/02/10 21:07:50;;;;;;;;;;;7.00;99.90;;;5.91;91.35;96142.78;10537599;28;1818;-72
2022/02/10 21:12:53;;;;;;;;;;;7.00;99.90;;;5.85;91.45;96126.84;10529825;28;1894;-72
2022/02/10 21:18:01;;;;;;;;;;;7.00;99.90;;;5.79;91.85;96104.63;10522822;28;2183;-72
2022/02/10 21:23:13;;;;;;;;;;;7.00;99.90;;;5.89;91.64;96102.16;10530004;28;1815;-71
2022/02/10 21:28:19;;;;;;;;;;;7.00;99.90;;;5.84;91.38;96112.72;10528657;28;1847;-71
2022/02/10 21:33:29;;;;;;;;;;;7.00;99.90;;;5.70;92.64;96114.03;10529832;28;1975;-72
2022/02/10 21:38:33;;;;;;;;;;;7.00;99.90;;;5.74;92.72;96107.19;10529320;28;1929;-72
2022/02/10 21:54:58;;;;;;;;;;;7.00;99.90;;;6.02;92.25;96111.78;10522131;28;2047;-82
2022/02/10 22:10:59;;;;;;;;;;;7.40;99.90;;;6.14;91.15;96085.06;10535985;28;1769;-83
2022/02/10 22:21:48;;;;;;;;;;;7.20;99.90;;;6.29;90.08;96079.19;10510424;28;1812;-81
2022/02/10 22:26:53;;;;;;;;;;;7.30;99.90;;;6.37;88.71;96062.81;10518127;28;1883;-83
2022/02/10 22:32:13;;;;;;;;;;;7.90;99.90;;;6.37;88.09;96058.28;10507209;28;1887;-84
2022/02/10 22:37:19;;;;;;;;;;;7.70;99.90;;;6.40;88.19;96063.13;10517491;28;1814;-82
2022/02/10 22:42:25;;;;;;;;;;;7.30;99.90;;;6.45;87.35;96065.88;10524972;28;1829;-85
2022/02/10 22:47:28;;;;;;;;;;;7.50;99.90;;;6.49;86.93;96055.53;10527150;28;1865;-81
2022/02/10 22:52:32;;;;;;;;;;;7.40;99.90;;;6.49;85.95;96051.00;10518871;28;1918;-82
2022/02/10 22:57:35;;;;;;;;;;;7.50;99.90;;;6.59;84.73;96041.53;10500216;28;1805;-83
2022/02/10 23:02:38;;;;;;;;;;;7.80;99.90;;;6.62;83.81;96038.41;10516991;28;1511;-83
2022/02/10 23:07:41;;;;;;;;;;;7.60;99.90;;;6.60;84.17;96035.94;10511494;28;1570;-83
2022/02/10 23:12:44;;;;;;;;;;;7.70;99.90;;;6.57;83.37;96022.28;10502564;28;1956;-82
2022/02/10 23:17:47;;;;;;;;;;;7.80;99.90;;;6.51;82.71;96026.72;10508659;28;1809;-84
2022/02/10 23:22:53;;;;;;;;;;;7.80;99.90;;;6.53;82.61;96013.94;10510351;28;1764;-83
2022/02/10 23:27:57;;;;;;;;;;;7.70;99.90;;;6.51;82.70;96013.38;10529276;28;1586;-83
2022/02/10 23:33:07;;;;;;;;;;;7.60;99.90;;;6.57;82.22;96011.59;10516466;28;1925;-81
2022/02/10 23:38:12;;;;;;;;;;;7.70;99.90;;;6.53;81.46;96007.78;10507590;28;1822;-85
2022/02/10 23:43:17;;;;;;;;;;;7.50;99.90;;;6.45;82.13;96001.00;10515323;28;1828;-83
2022/02/10 23:48:20;;;;;;;;;;;8.40;99.90;;;6.44;81.71;95983.34;10515833;28;2069;-85
2022/02/10 23:53:23;;;;;;;;;;;7.50;99.90;;;6.52;83.11;95979.47;10521139;28;1890;-84
2022/02/10 23:58:33;;;;;;;;;;;7.60;99.90;;;6.39;83.71;95976.06;10515780;28;1923;-86
